sensor_id;sensor_type;location;lat;lon;timestamp;P1;durP1;ratioP1;P2;durP2;ratioP2
4061;SDS011;2046;47.064;15.456;2023-03-01T00:01:06;6.75;;;4.68;;
4061;SDS011;2046;47.064;15.456;2023-03-01T00:03:34;6.15;;;4.38;;
4061;SDS011;2046;47.064;15.456;2023-03-01T00:06:01;6.90;;;4.45;;
4061;SDS011;2046;47.064;15.456;2023-03-01T00:08:28;7.25;;;4.50;;
4061;SDS011;2046;47.064;15.456;2023-03-01T00:13:28;7.95;;;4.60;;
4061;SDS011;2046;47.064;15.456;2023-03-01T00:15:55;5.43;;;4.20;;
4061;SDS011;2046;47.064;15.456;2023-03-01T00:18:21;5.22;;;4.00;;
4061;SDS011;2046;47.064;15.456;2023-03-01T00:20:49;6.18;;;4.40;;
4061;SDS011;2046;47.064;15.456;2023-03-01T00:23:16;7.15;;;4.47;;
4061;SDS011;2046;47.064;15.456;2023-03-01T00:25:42;5.78;;;4.30;;
4061;SDS011;2046;47.064;15.456;2023-03-01T00:28:09;8.05;;;4.82;;
4061;SDS011;2046;47.064;15.456;2023-03-01T00:30:36;7.55;;;4.53;;
4061;SDS011;2046;47.064;15.456;2023-03-01T00:33:02;7.60;;;3.80;;
4061;SDS011;2046;47.064;15.456;2023-03-01T00:35:29;6.85;;;4.60;;
4061;SDS011;2046;47.064;15.456;2023-03-01T00:37:59;5.50;;;4.10;;
4061;SDS011;2046;47.064;15.456;2023-03-01T00:40:26;4.88;;;3.72;;
4061;SDS011;2046;47.064;15.456;2023-03-01T00:42:54;6.22;;;4.40;;
4061;SDS011;2046;47.064;15.456;2023-03-01T00:45:20;5.88;;;4.38;;
4061;SDS011;2046;47.064;15.456;2023-03-01T00:47:48;7.30;;;4.28;;
4061;SDS011;2046;47.064;15.456;2023-03-01T00:50:14;8.20;;;4.32;;
4061;SDS011;2046;47.064;15.456;2023-03-01T00:52:41;6.75;;;4.45;;
4061;SDS011;2046;47.064;15.456;2023-03-01T00:55:08;4.45;;;3.80;;
4061;SDS011;2046;47.064;15.456;2023-03-01T00:57:35;5.10;;;4.10;;
4061;SDS011;2046;47.064;15.456;2023-03-01T01:00:02;4.85;;;4.03;;
4061;SDS011;2046;47.064;15.456;2023-03-01T01:02:31;6.93;;;4.05;;
4061;SDS011;2046;47.064;15.456;2023-03-01T01:04:58;7.30;;;4.32;;
4061;SDS011;2046;47.064;15.456;2023-03-01T01:07:25;7.05;;;4.03;;
4061;SDS011;2046;47.064;15.456;2023-03-01T01:09:52;6.22;;;3.67;;
4061;SDS011;2046;47.064;15.456;2023-03-01T01:12:18;6.63;;;4.22;;
4061;SDS011;2046;47.064;15.456;2023-03-01T01:14:45;6.57;;;4.38;;
4061;SDS011;2046;47.064;15.456;2023-03-01T01:17:12;5.53;;;3.90;;
4061;SDS011;2046;47.064;15.456;2023-03-01T01:19:39;5.45;;;3.85;;
4061;SDS011;2046;47.064;15.456;2023-03-01T01:22:05;5.47;;;3.90;;
4061;SDS011;2046;47.064;15.456;2023-03-01T01:24:32;5.30;;;4.18;;
4061;SDS011;2046;47.064;15.456;2023-03-01T01:26:58;9.63;;;4.78;;
4061;SDS011;2046;47.064;15.456;2023-03-01T01:29:25;5.43;;;3.80;;
4061;SDS011;2046;47.064;15.456;2023-03-01T01:31:51;6.43;;;4.40;;
4061;SDS011;2046;47.064;15.456;2023-03-01T01:34:19;5.50;;;3.83;;
4061;SDS011;2046;47.064;15.456;2023-03-01T01:36:50;6.30;;;4.18;;
4061;SDS011;2046;47.064;15.456;2023-03-01T01:39:20;6.97;;;4.32;;
4061;SDS011;2046;47.064;15.456;2023-03-01T01:41:46;5.57;;;4.15;;
4061;SDS011;2046;47.064;15.456;2023-03-01T01:44:20;6.82;;;4.57;;
4061;SDS011;2046;47.064;15.456;2023-03-01T01:46:57;6.25;;;3.90;;
4061;SDS011;2046;47.064;15.456;2023-03-01T01:49:27;7.65;;;4.35;;
4061;SDS011;2046;47.064;15.456;2023-03-01T01:51:59;6.75;;;4.18;;
4061;SDS011;2046;47.064;15.456;2023-03-01T01:54:32;7.80;;;4.30;;
4061;SDS011;2046;47.064;15.456;2023-03-01T01:57:01;7.03;;;4.13;;
4061;SDS011;2046;47.064;15.456;2023-03-01T01:59:30;4.60;;;3.83;;
4061;SDS011;2046;47.064;15.456;2023-03-01T02:01:58;6.35;;;4.32;;
4061;SDS011;2046;47.064;15.456;2023-03-01T02:04:25;7.93;;;4.25;;
4061;SDS011;2046;47.064;15.456;2023-03-01T02:06:58;6.18;;;4.07;;
4061;SDS011;2046;47.064;15.456;2023-03-01T02:09:26;5.78;;;4.50;;
4061;SDS011;2046;47.064;15.456;2023-03-01T02:11:53;8.98;;;4.22;;
4061;SDS011;2046;47.064;15.456;2023-03-01T02:14:20;6.10;;;4.38;;
4061;SDS011;2046;47.064;15.456;2023-03-01T02:16:46;6.13;;;3.83;;
4061;SDS011;2046;47.064;15.456;2023-03-01T02:19:19;5.82;;;3.88;;
4061;SDS011;2046;47.064;15.456;2023-03-01T02:26:42;7.40;;;4.57;;
4061;SDS011;2046;47.064;15.456;2023-03-01T02:29:12;6.43;;;4.15;;
4061;SDS011;2046;47.064;15.456;2023-03-01T02:31:39;5.35;;;3.90;;
4061;SDS011;2046;47.064;15.456;2023-03-01T02:34:09;7.53;;;4.13;;
4061;SDS011;2046;47.064;15.456;2023-03-01T02:36:47;8.40;;;3.97;;
4061;SDS011;2046;47.064;15.456;2023-03-01T02:39:14;6.63;;;4.05;;
4061;SDS011;2046;47.064;15.456;2023-03-01T02:41:44;9.73;;;4.43;;
4061;SDS011;2046;47.064;15.456;2023-03-01T02:44:12;7.47;;;4.50;;
4061;SDS011;2046;47.064;15.456;2023-03-01T02:46:46;6.55;;;4.05;;
4061;SDS011;2046;47.064;15.456;2023-03-01T02:49:24;6.05;;;4.13;;
4061;SDS011;2046;47.064;15.456;2023-03-01T02:54:38;4.80;;;3.63;;
4061;SDS011;2046;47.064;15.456;2023-03-01T02:57:06;6.32;;;4.22;;
4061;SDS011;2046;47.064;15.456;2023-03-01T02:59:34;8.02;;;4.43;;
4061;SDS011;2046;47.064;15.456;2023-03-01T03:02:27;7.03;;;4.38;;
4061;SDS011;2046;47.064;15.456;2023-03-01T03:05:05;5.13;;;3.75;;
4061;SDS011;2046;47.064;15.456;2023-03-01T03:07:35;7.97;;;4.00;;
4061;SDS011;2046;47.064;15.456;2023-03-01T03:10:03;6.18;;;4.28;;
4061;SDS011;2046;47.064;15.456;2023-03-01T03:12:30;5.05;;;4.03;;
4061;SDS011;2046;47.064;15.456;2023-03-01T03:14:57;6.75;;;4.13;;
4061;SDS011;2046;47.064;15.456;2023-03-01T03:17:23;6.38;;;4.20;;
4061;SDS011;2046;47.064;15.456;2023-03-01T03:19:50;5.63;;;4.40;;
4061;SDS011;2046;47.064;15.456;2023-03-01T03:22:16;5.55;;;4.07;;
4061;SDS011;2046;47.064;15.456;2023-03-01T03:24:43;6.43;;;4.25;;
4061;SDS011;2046;47.064;15.456;2023-03-01T03:27:10;6.65;;;4.68;;
4061;SDS011;2046;47.064;15.456;2023-03-01T03:29:36;7.25;;;4.65;;
4061;SDS011;2046;47.064;15.456;2023-03-01T03:32:03;6.35;;;4.32;;
4061;SDS011;2046;47.064;15.456;2023-03-01T03:34:30;6.60;;;4.25;;
4061;SDS011;2046;47.064;15.456;2023-03-01T03:36:56;6.38;;;4.40;;
4061;SDS011;2046;47.064;15.456;2023-03-01T03:39:26;6.03;;;4.40;;
4061;SDS011;2046;47.064;15.456;2023-03-01T03:41:53;6.25;;;4.28;;
4061;SDS011;2046;47.064;15.456;2023-03-01T03:44:20;6.63;;;4.22;;
4061;SDS011;2046;47.064;15.456;2023-03-01T03:46:46;7.25;;;4.30;;
4061;SDS011;2046;47.064;15.456;2023-03-01T03:49:13;6.45;;;4.30;;
4061;SDS011;2046;47.064;15.456;2023-03-01T03:51:40;6.57;;;4.40;;
4061;SDS011;2046;47.064;15.456;2023-03-01T03:54:06;4.45;;;3.22;;
4061;SDS011;2046;47.064;15.456;2023-03-01T03:56:33;6.07;;;4.05;;
4061;SDS011;2046;47.064;15.456;2023-03-01T03:59:00;6.70;;;4.75;;
4061;SDS011;2046;47.064;15.456;2023-03-01T04:01:26;8.25;;;4.28;;
4061;SDS011;2046;47.064;15.456;2023-03-01T04:03:53;5.53;;;4.03;;
4061;SDS011;2046;47.064;15.456;2023-03-01T04:06:21;6.55;;;4.15;;
4061;SDS011;2046;47.064;15.456;2023-03-01T04:08:47;5.70;;;4.15;;
4061;SDS011;2046;47.064;15.456;2023-03-01T04:11:17;5.00;;;3.97;;
4061;SDS011;2046;47.064;15.456;2023-03-01T04:13:55;5.57;;;4.15;;
4061;SDS011;2046;47.064;15.456;2023-03-01T04:16:22;7.03;;;4.22;;
4061;SDS011;2046;47.064;15.456;2023-03-01T04:18:49;7.35;;;4.35;;
4061;SDS011;2046;47.064;15.456;2023-03-01T04:21:16;5.05;;;4.10;;
4061;SDS011;2046;47.064;15.456;2023-03-01T04:23:43;5.55;;;4.32;;
4061;SDS011;2046;47.064;15.456;2023-03-01T04:26:10;5.38;;;4.05;;
4061;SDS011;2046;47.064;15.456;2023-03-01T04:28:37;5.18;;;4.00;;
4061;SDS011;2046;47.064;15.456;2023-03-01T04:31:07;5.63;;;3.83;;
4061;SDS011;2046;47.064;15.456;2023-03-01T04:33:40;17.40;;;4.20;;
4061;SDS011;2046;47.064;15.456;2023-03-01T04:36:07;6.88;;;4.70;;
4061;SDS011;2046;47.064;15.456;2023-03-01T04:38:36;5.53;;;4.13;;
4061;SDS011;2046;47.064;15.456;2023-03-01T04:41:08;7.15;;;4.47;;
4061;SDS011;2046;47.064;15.456;2023-03-01T04:43:35;6.35;;;4.30;;
4061;SDS011;2046;47.064;15.456;2023-03-01T04:46:06;7.25;;;4.40;;
4061;SDS011;2046;47.064;15.456;2023-03-01T04:48:36;5.78;;;4.05;;
4061;SDS011;2046;47.064;15.456;2023-03-01T04:51:03;6.22;;;4.15;;
4061;SDS011;2046;47.064;15.456;2023-03-01T04:53:30;8.13;;;4.70;;
4061;SDS011;2046;47.064;15.456;2023-03-01T04:55:57;8.18;;;5.18;;
4061;SDS011;2046;47.064;15.456;2023-03-01T04:58:23;9.45;;;5.15;;
4061;SDS011;2046;47.064;15.456;2023-03-01T05:00:50;6.22;;;4.47;;
4061;SDS011;2046;47.064;15.456;2023-03-01T05:03:17;8.10;;;4.93;;
4061;SDS011;2046;47.064;15.456;2023-03-01T05:05:45;6.72;;;4.80;;
4061;SDS011;2046;47.064;15.456;2023-03-01T05:08:12;7.07;;;4.78;;
4061;SDS011;2046;47.064;15.456;2023-03-01T05:10:44;6.97;;;4.72;;
4061;SDS011;2046;47.064;15.456;2023-03-01T05:13:12;5.85;;;4.20;;
4061;SDS011;2046;47.064;15.456;2023-03-01T05:15:48;6.25;;;4.20;;
4061;SDS011;2046;47.064;15.456;2023-03-01T05:18:15;7.05;;;4.40;;
4061;SDS011;2046;47.064;15.456;2023-03-01T05:20:42;9.13;;;5.13;;
4061;SDS011;2046;47.064;15.456;2023-03-01T05:23:08;7.57;;;4.97;;
4061;SDS011;2046;47.064;15.456;2023-03-01T05:25:35;7.13;;;4.95;;
4061;SDS011;2046;47.064;15.456;2023-03-01T05:28:12;8.15;;;4.90;;
4061;SDS011;2046;47.064;15.456;2023-03-01T05:30:39;6.72;;;4.45;;
4061;SDS011;2046;47.064;15.456;2023-03-01T05:33:07;5.68;;;3.60;;
4061;SDS011;2046;47.064;15.456;2023-03-01T05:35:40;6.88;;;4.75;;
4061;SDS011;2046;47.064;15.456;2023-03-01T05:38:12;8.20;;;4.55;;
4061;SDS011;2046;47.064;15.456;2023-03-01T05:40:42;8.23;;;4.63;;
4061;SDS011;2046;47.064;15.456;2023-03-01T05:43:10;7.78;;;4.53;;
4061;SDS011;2046;47.064;15.456;2023-03-01T05:45:39;7.00;;;4.88;;
4061;SDS011;2046;47.064;15.456;2023-03-01T05:48:07;7.07;;;4.82;;
4061;SDS011;2046;47.064;15.456;2023-03-01T05:50:36;9.00;;;5.25;;
4061;SDS011;2046;47.064;15.456;2023-03-01T05:53:04;7.07;;;5.03;;
4061;SDS011;2046;47.064;15.456;2023-03-01T05:55:34;8.20;;;4.95;;
4061;SDS011;2046;47.064;15.456;2023-03-01T05:58:02;8.88;;;5.30;;
4061;SDS011;2046;47.064;15.456;2023-03-01T06:00:29;9.10;;;5.00;;
4061;SDS011;2046;47.064;15.456;2023-03-01T06:02:56;6.38;;;4.75;;
4061;SDS011;2046;47.064;15.456;2023-03-01T06:05:24;7.88;;;5.25;;
4061;SDS011;2046;47.064;15.456;2023-03-01T06:07:51;8.55;;;5.45;;
4061;SDS011;2046;47.064;15.456;2023-03-01T06:10:19;8.07;;;5.18;;
4061;SDS011;2046;47.064;15.456;2023-03-01T06:12:46;8.90;;;5.20;;
4061;SDS011;2046;47.064;15.456;2023-03-01T06:15:13;8.05;;;4.90;;
4061;SDS011;2046;47.064;15.456;2023-03-01T06:17:41;7.25;;;5.07;;
4061;SDS011;2046;47.064;15.456;2023-03-01T06:20:12;8.85;;;5.15;;
4061;SDS011;2046;47.064;15.456;2023-03-01T06:22:39;8.30;;;5.07;;
4061;SDS011;2046;47.064;15.456;2023-03-01T06:25:06;8.75;;;4.70;;
4061;SDS011;2046;47.064;15.456;2023-03-01T06:27:33;7.50;;;5.32;;
4061;SDS011;2046;47.064;15.456;2023-03-01T06:29:59;6.82;;;4.68;;
4061;SDS011;2046;47.064;15.456;2023-03-01T06:32:26;9.75;;;5.47;;
4061;SDS011;2046;47.064;15.456;2023-03-01T06:34:53;7.75;;;5.43;;
4061;SDS011;2046;47.064;15.456;2023-03-01T06:37:19;10.13;;;4.90;;
4061;SDS011;2046;47.064;15.456;2023-03-01T06:39:46;8.90;;;5.55;;
4061;SDS011;2046;47.064;15.456;2023-03-01T06:42:12;8.60;;;5.93;;
4061;SDS011;2046;47.064;15.456;2023-03-01T06:44:39;7.15;;;5.28;;
4061;SDS011;2046;47.064;15.456;2023-03-01T06:47:06;8.57;;;5.30;;
4061;SDS011;2046;47.064;15.456;2023-03-01T06:49:32;8.32;;;5.78;;
4061;SDS011;2046;47.064;15.456;2023-03-01T06:51:59;8.63;;;5.35;;
4061;SDS011;2046;47.064;15.456;2023-03-01T06:54:25;8.68;;;5.10;;
4061;SDS011;2046;47.064;15.456;2023-03-01T06:56:52;7.22;;;4.80;;
4061;SDS011;2046;47.064;15.456;2023-03-01T06:59:18;10.23;;;6.05;;
4061;SDS011;2046;47.064;15.456;2023-03-01T07:01:45;9.63;;;6.07;;
4061;SDS011;2046;47.064;15.456;2023-03-01T07:04:12;8.73;;;5.47;;
4061;SDS011;2046;47.064;15.456;2023-03-01T07:06:39;9.13;;;5.95;;
4061;SDS011;2046;47.064;15.456;2023-03-01T07:09:06;9.82;;;5.50;;
4061;SDS011;2046;47.064;15.456;2023-03-01T07:11:33;7.53;;;5.25;;
4061;SDS011;2046;47.064;15.456;2023-03-01T07:13:59;8.57;;;5.35;;
4061;SDS011;2046;47.064;15.456;2023-03-01T07:16:26;9.60;;;5.85;;
4061;SDS011;2046;47.064;15.456;2023-03-01T07:18:53;9.45;;;5.70;;
4061;SDS011;2046;47.064;15.456;2023-03-01T07:21:19;10.45;;;5.88;;
4061;SDS011;2046;47.064;15.456;2023-03-01T07:23:49;9.30;;;5.85;;
4061;SDS011;2046;47.064;15.456;2023-03-01T07:26:15;13.93;;;5.78;;
4061;SDS011;2046;47.064;15.456;2023-03-01T07:28:42;11.02;;;6.30;;
4061;SDS011;2046;47.064;15.456;2023-03-01T07:31:08;12.10;;;5.65;;
4061;SDS011;2046;47.064;15.456;2023-03-01T07:33:35;10.02;;;5.45;;
4061;SDS011;2046;47.064;15.456;2023-03-01T07:36:02;7.15;;;5.53;;
4061;SDS011;2046;47.064;15.456;2023-03-01T07:38:29;9.48;;;5.63;;
4061;SDS011;2046;47.064;15.456;2023-03-01T07:41:00;13.20;;;5.80;;
4061;SDS011;2046;47.064;15.456;2023-03-01T07:43:27;9.32;;;5.90;;
4061;SDS011;2046;47.064;15.456;2023-03-01T07:45:54;9.25;;;5.68;;
4061;SDS011;2046;47.064;15.456;2023-03-01T07:48:21;9.90;;;6.05;;
4061;SDS011;2046;47.064;15.456;2023-03-01T07:50:47;11.27;;;5.65;;
4061;SDS011;2046;47.064;15.456;2023-03-01T07:53:14;8.55;;;5.50;;
4061;SDS011;2046;47.064;15.456;2023-03-01T07:55:40;13.57;;;5.70;;
4061;SDS011;2046;47.064;15.456;2023-03-01T07:58:07;10.45;;;6.38;;
4061;SDS011;2046;47.064;15.456;2023-03-01T08:00:33;11.57;;;5.40;;
4061;SDS011;2046;47.064;15.456;2023-03-01T08:03:00;10.55;;;5.55;;
4061;SDS011;2046;47.064;15.456;2023-03-01T08:05:27;7.85;;;5.00;;
4061;SDS011;2046;47.064;15.456;2023-03-01T08:07:54;8.90;;;5.88;;
4061;SDS011;2046;47.064;15.456;2023-03-01T08:10:21;8.23;;;4.80;;
4061;SDS011;2046;47.064;15.456;2023-03-01T08:12:48;76.82;;;7.45;;
4061;SDS011;2046;47.064;15.456;2023-03-01T08:15:16;12.90;;;6.20;;
4061;SDS011;2046;47.064;15.456;2023-03-01T08:17:45;152.70;;;46.42;;
4061;SDS011;2046;47.064;15.456;2023-03-01T08:20:11;54.65;;;18.75;;
4061;SDS011;2046;47.064;15.456;2023-03-01T08:22:39;48.92;;;15.52;;
4061;SDS011;2046;47.064;15.456;2023-03-01T08:25:05;37.47;;;12.25;;
4061;SDS011;2046;47.064;15.456;2023-03-01T08:27:32;23.42;;;9.50;;
4061;SDS011;2046;47.064;15.456;2023-03-01T08:29:59;24.83;;;9.80;;
4061;SDS011;2046;47.064;15.456;2023-03-01T08:32:25;29.42;;;13.57;;
4061;SDS011;2046;47.064;15.456;2023-03-01T08:34:52;51.65;;;34.55;;
4061;SDS011;2046;47.064;15.456;2023-03-01T08:37:19;38.17;;;24.05;;
4061;SDS011;2046;47.064;15.456;2023-03-01T08:39:46;33.03;;;20.00;;
4061;SDS011;2046;47.064;15.456;2023-03-01T08:42:12;30.70;;;17.35;;
4061;SDS011;2046;47.064;15.456;2023-03-01T08:44:39;20.20;;;11.55;;
4061;SDS011;2046;47.064;15.456;2023-03-01T08:47:06;24.33;;;12.00;;
4061;SDS011;2046;47.064;15.456;2023-03-01T08:49:32;22.73;;;11.25;;
4061;SDS011;2046;47.064;15.456;2023-03-01T08:51:59;20.90;;;11.23;;
4061;SDS011;2046;47.064;15.456;2023-03-01T08:54:25;20.88;;;10.50;;
4061;SDS011;2046;47.064;15.456;2023-03-01T08:56:52;18.30;;;10.32;;
4061;SDS011;2046;47.064;15.456;2023-03-01T08:59:19;17.48;;;9.75;;
4061;SDS011;2046;47.064;15.456;2023-03-01T09:01:46;13.95;;;9.00;;
4061;SDS011;2046;47.064;15.456;2023-03-01T09:04:12;15.77;;;8.48;;
4061;SDS011;2046;47.064;15.456;2023-03-01T09:06:40;16.42;;;8.27;;
4061;SDS011;2046;47.064;15.456;2023-03-01T09:09:12;15.82;;;9.00;;
4061;SDS011;2046;47.064;15.456;2023-03-01T09:11:41;14.02;;;8.50;;
4061;SDS011;2046;47.064;15.456;2023-03-01T09:14:08;13.30;;;8.07;;
4061;SDS011;2046;47.064;15.456;2023-03-01T09:16:35;15.02;;;7.93;;
4061;SDS011;2046;47.064;15.456;2023-03-01T09:19:03;18.15;;;8.38;;
4061;SDS011;2046;47.064;15.456;2023-03-01T09:21:29;14.13;;;7.78;;
4061;SDS011;2046;47.064;15.456;2023-03-01T09:24:07;11.52;;;6.82;;
4061;SDS011;2046;47.064;15.456;2023-03-01T09:26:38;13.52;;;7.72;;
4061;SDS011;2046;47.064;15.456;2023-03-01T09:29:04;12.65;;;7.70;;
4061;SDS011;2046;47.064;15.456;2023-03-01T09:31:31;13.02;;;7.22;;
4061;SDS011;2046;47.064;15.456;2023-03-01T09:33:57;13.57;;;7.10;;
4061;SDS011;2046;47.064;15.456;2023-03-01T09:36:24;14.02;;;7.70;;
4061;SDS011;2046;47.064;15.456;2023-03-01T09:38:55;12.70;;;6.43;;
4061;SDS011;2046;47.064;15.456;2023-03-01T09:46:32;11.77;;;6.53;;
4061;SDS011;2046;47.064;15.456;2023-03-01T09:49:05;12.57;;;6.93;;
4061;SDS011;2046;47.064;15.456;2023-03-01T09:51:34;10.68;;;6.50;;
4061;SDS011;2046;47.064;15.456;2023-03-01T09:54:04;11.80;;;7.65;;
4061;SDS011;2046;47.064;15.456;2023-03-01T09:56:37;14.35;;;7.40;;
4061;SDS011;2046;47.064;15.456;2023-03-01T10:01:38;11.40;;;6.47;;
4061;SDS011;2046;47.064;15.456;2023-03-01T10:09:39;11.23;;;6.65;;
4061;SDS011;2046;47.064;15.456;2023-03-01T10:12:17;12.60;;;6.93;;
4061;SDS011;2046;47.064;15.456;2023-03-01T10:20:15;10.32;;;6.35;;
4061;SDS011;2046;47.064;15.456;2023-03-01T10:22:43;13.13;;;6.55;;
4061;SDS011;2046;47.064;15.456;2023-03-01T10:25:13;10.52;;;6.53;;
4061;SDS011;2046;47.064;15.456;2023-03-01T10:27:46;12.15;;;6.72;;
4061;SDS011;2046;47.064;15.456;2023-03-01T10:32:44;11.07;;;6.50;;
4061;SDS011;2046;47.064;15.456;2023-03-01T10:37:56;10.50;;;6.32;;
4061;SDS011;2046;47.064;15.456;2023-03-01T10:40:23;10.00;;;6.43;;
4061;SDS011;2046;47.064;15.456;2023-03-01T10:42:50;9.75;;;6.22;;
4061;SDS011;2046;47.064;15.456;2023-03-01T10:45:27;9.90;;;6.05;;
4061;SDS011;2046;47.064;15.456;2023-03-01T10:48:29;7.78;;;5.80;;
4061;SDS011;2046;47.064;15.456;2023-03-01T10:55:59;9.57;;;6.18;;
4061;SDS011;2046;47.064;15.456;2023-03-01T10:58:27;8.07;;;5.72;;
4061;SDS011;2046;47.064;15.456;2023-03-01T11:00:55;9.63;;;6.15;;
4061;SDS011;2046;47.064;15.456;2023-03-01T11:05:56;8.52;;;5.93;;
4061;SDS011;2046;47.064;15.456;2023-03-01T11:08:56;8.50;;;5.80;;
4061;SDS011;2046;47.064;15.456;2023-03-01T11:13:53;8.73;;;5.53;;
4061;SDS011;2046;47.064;15.456;2023-03-01T11:16:31;7.53;;;5.70;;
4061;SDS011;2046;47.064;15.456;2023-03-01T11:19:00;9.40;;;5.57;;
4061;SDS011;2046;47.064;15.456;2023-03-01T11:21:28;9.98;;;5.70;;
4061;SDS011;2046;47.064;15.456;2023-03-01T11:23:57;7.60;;;5.30;;
4061;SDS011;2046;47.064;15.456;2023-03-01T11:26:24;7.07;;;4.63;;
4061;SDS011;2046;47.064;15.456;2023-03-01T11:28:51;13.15;;;6.35;;
4061;SDS011;2046;47.064;15.456;2023-03-01T11:31:20;7.40;;;5.30;;
4061;SDS011;2046;47.064;15.456;2023-03-01T11:38:47;8.65;;;5.50;;
4061;SDS011;2046;47.064;15.456;2023-03-01T11:41:20;9.60;;;5.40;;
4061;SDS011;2046;47.064;15.456;2023-03-01T11:44:05;8.20;;;5.35;;
4061;SDS011;2046;47.064;15.456;2023-03-01T11:46:43;5.60;;;4.05;;
4061;SDS011;2046;47.064;15.456;2023-03-01T12:07:40;7.00;;;4.70;;
4061;SDS011;2046;47.064;15.456;2023-03-01T12:10:22;8.63;;;5.32;;
4061;SDS011;2046;47.064;15.456;2023-03-01T12:12:56;6.38;;;4.65;;
4061;SDS011;2046;47.064;15.456;2023-03-01T12:18:01;8.25;;;5.22;;
4061;SDS011;2046;47.064;15.456;2023-03-01T12:38:49;6.43;;;4.75;;
4061;SDS011;2046;47.064;15.456;2023-03-01T12:49:14;7.75;;;5.35;;
4061;SDS011;2046;47.064;15.456;2023-03-01T12:52:27;6.60;;;4.70;;
4061;SDS011;2046;47.064;15.456;2023-03-01T12:54:36;11.32;;;5.22;;
4061;SDS011;2046;47.064;15.456;2023-03-01T12:57:06;10.30;;;5.65;;
4061;SDS011;2046;47.064;15.456;2023-03-01T12:59:39;6.68;;;4.85;;
4061;SDS011;2046;47.064;15.456;2023-03-01T13:07:48;5.45;;;4.35;;
4061;SDS011;2046;47.064;15.456;2023-03-01T13:17:56;9.23;;;4.72;;
4061;SDS011;2046;47.064;15.456;2023-03-01T13:20:31;5.90;;;4.40;;
4061;SDS011;2046;47.064;15.456;2023-03-01T13:23:03;6.60;;;4.95;;
4061;SDS011;2046;47.064;15.456;2023-03-01T13:25:31;5.80;;;4.40;;
4061;SDS011;2046;47.064;15.456;2023-03-01T13:30:52;8.05;;;4.30;;
4061;SDS011;2046;47.064;15.456;2023-03-01T13:35:52;7.90;;;4.85;;
4061;SDS011;2046;47.064;15.456;2023-03-01T13:41:07;7.30;;;4.43;;
4061;SDS011;2046;47.064;15.456;2023-03-01T13:43:35;7.45;;;4.50;;
4061;SDS011;2046;47.064;15.456;2023-03-01T13:46:07;5.75;;;4.32;;
4061;SDS011;2046;47.064;15.456;2023-03-01T13:48:34;7.60;;;4.30;;
4061;SDS011;2046;47.064;15.456;2023-03-01T13:51:09;11.65;;;4.60;;
4061;SDS011;2046;47.064;15.456;2023-03-01T13:53:39;6.60;;;4.18;;
4061;SDS011;2046;47.064;15.456;2023-03-01T13:56:08;9.07;;;4.38;;
4061;SDS011;2046;47.064;15.456;2023-03-01T13:58:52;6.60;;;4.32;;
4061;SDS011;2046;47.064;15.456;2023-03-01T14:01:23;5.10;;;3.50;;
4061;SDS011;2046;47.064;15.456;2023-03-01T14:03:51;6.22;;;4.10;;
4061;SDS011;2046;47.064;15.456;2023-03-01T14:06:35;6.43;;;3.95;;
4061;SDS011;2046;47.064;15.456;2023-03-01T14:21:25;5.72;;;3.67;;
4061;SDS011;2046;47.064;15.456;2023-03-01T14:23:52;9.13;;;3.83;;
4061;SDS011;2046;47.064;15.456;2023-03-01T14:26:22;10.68;;;4.50;;
4061;SDS011;2046;47.064;15.456;2023-03-01T14:28:49;7.88;;;4.30;;
4061;SDS011;2046;47.064;15.456;2023-03-01T14:33:55;19.52;;;8.07;;
4061;SDS011;2046;47.064;15.456;2023-03-01T14:36:26;16.02;;;8.77;;
4061;SDS011;2046;47.064;15.456;2023-03-01T14:38:53;49.38;;;24.38;;
4061;SDS011;2046;47.064;15.456;2023-03-01T14:41:21;29.95;;;15.57;;
4061;SDS011;2046;47.064;15.456;2023-03-01T14:43:52;25.63;;;15.57;;
4061;SDS011;2046;47.064;15.456;2023-03-01T14:46:24;177.30;;;106.00;;
4061;SDS011;2046;47.064;15.456;2023-03-01T14:48:52;129.90;;;116.10;;
4061;SDS011;2046;47.064;15.456;2023-03-01T14:51:19;114.25;;;101.75;;
4061;SDS011;2046;47.064;15.456;2023-03-01T14:53:46;334.52;;;178.07;;
4061;SDS011;2046;47.064;15.456;2023-03-01T14:56:17;67.43;;;42.53;;
4061;SDS011;2046;47.064;15.456;2023-03-01T14:58:44;90.80;;;56.42;;
4061;SDS011;2046;47.064;15.456;2023-03-01T15:01:12;113.35;;;59.88;;
4061;SDS011;2046;47.064;15.456;2023-03-01T15:03:41;78.35;;;43.85;;
4061;SDS011;2046;47.064;15.456;2023-03-01T15:06:09;309.33;;;140.43;;
4061;SDS011;2046;47.064;15.456;2023-03-01T15:08:41;138.73;;;73.88;;
4061;SDS011;2046;47.064;15.456;2023-03-01T15:11:19;97.35;;;50.53;;
4061;SDS011;2046;47.064;15.456;2023-03-01T15:13:48;69.50;;;38.40;;
4061;SDS011;2046;47.064;15.456;2023-03-01T15:16:17;67.75;;;36.70;;
4061;SDS011;2046;47.064;15.456;2023-03-01T15:18:46;69.47;;;35.58;;
4061;SDS011;2046;47.064;15.456;2023-03-01T15:21:17;48.67;;;27.55;;
4061;SDS011;2046;47.064;15.456;2023-03-01T15:23:52;51.03;;;26.00;;
4061;SDS011;2046;47.064;15.456;2023-03-01T15:26:30;40.25;;;21.63;;
4061;SDS011;2046;47.064;15.456;2023-03-01T15:28:58;39.15;;;21.50;;
4061;SDS011;2046;47.064;15.456;2023-03-01T15:31:26;35.28;;;19.15;;
4061;SDS011;2046;47.064;15.456;2023-03-01T15:34:07;32.85;;;18.33;;
4061;SDS011;2046;47.064;15.456;2023-03-01T15:36:39;27.50;;;17.30;;
4061;SDS011;2046;47.064;15.456;2023-03-01T15:39:23;30.05;;;16.77;;
4061;SDS011;2046;47.064;15.456;2023-03-01T15:41:52;27.33;;;15.10;;
4061;SDS011;2046;47.064;15.456;2023-03-01T15:46:55;25.23;;;12.98;;
4061;SDS011;2046;47.064;15.456;2023-03-01T15:49:25;21.38;;;12.98;;
4061;SDS011;2046;47.064;15.456;2023-03-01T15:51:54;23.65;;;12.73;;
4061;SDS011;2046;47.064;15.456;2023-03-01T15:54:21;23.55;;;12.32;;
4061;SDS011;2046;47.064;15.456;2023-03-01T15:56:49;23.75;;;12.38;;
4061;SDS011;2046;47.064;15.456;2023-03-01T15:59:17;19.50;;;11.48;;
4061;SDS011;2046;47.064;15.456;2023-03-01T16:01:44;16.83;;;10.30;;
4061;SDS011;2046;47.064;15.456;2023-03-01T16:04:11;17.80;;;10.20;;
4061;SDS011;2046;47.064;15.456;2023-03-01T16:06:47;20.60;;;12.15;;
4061;SDS011;2046;47.064;15.456;2023-03-01T16:09:23;18.10;;;9.77;;
4061;SDS011;2046;47.064;15.456;2023-03-01T16:11:50;19.35;;;10.27;;
4061;SDS011;2046;47.064;15.456;2023-03-01T16:14:17;14.25;;;9.13;;
4061;SDS011;2046;47.064;15.456;2023-03-01T16:16:45;18.52;;;9.50;;
4061;SDS011;2046;47.064;15.456;2023-03-01T16:19:12;15.18;;;8.68;;
4061;SDS011;2046;47.064;15.456;2023-03-01T16:21:38;14.27;;;9.30;;
4061;SDS011;2046;47.064;15.456;2023-03-01T16:24:05;16.90;;;7.95;;
4061;SDS011;2046;47.064;15.456;2023-03-01T16:26:32;17.02;;;8.20;;
4061;SDS011;2046;47.064;15.456;2023-03-01T16:28:59;11.88;;;7.15;;
4061;SDS011;2046;47.064;15.456;2023-03-01T16:31:25;13.60;;;8.88;;
4061;SDS011;2046;47.064;15.456;2023-03-01T16:33:54;10.23;;;6.20;;
4061;SDS011;2046;47.064;15.456;2023-03-01T16:36:21;12.23;;;6.15;;
4061;SDS011;2046;47.064;15.456;2023-03-01T16:38:50;10.00;;;6.68;;
4061;SDS011;2046;47.064;15.456;2023-03-01T16:41:18;12.20;;;6.80;;
4061;SDS011;2046;47.064;15.456;2023-03-01T16:43:45;10.57;;;6.70;;
4061;SDS011;2046;47.064;15.456;2023-03-01T16:46:14;13.98;;;7.57;;
4061;SDS011;2046;47.064;15.456;2023-03-01T16:48:41;7.68;;;5.20;;
4061;SDS011;2046;47.064;15.456;2023-03-01T19:14:57;8.90;;;5.13;;
4061;SDS011;2046;47.064;15.456;2023-03-01T19:17:24;8.10;;;4.70;;
4061;SDS011;2046;47.064;15.456;2023-03-01T19:19:56;8.13;;;4.30;;
4061;SDS011;2046;47.064;15.456;2023-03-01T19:22:23;6.95;;;4.57;;
4061;SDS011;2046;47.064;15.456;2023-03-01T19:24:49;4.93;;;3.75;;
4061;SDS011;2046;47.064;15.456;2023-03-01T19:27:16;6.72;;;4.95;;
4061;SDS011;2046;47.064;15.456;2023-03-01T19:29:43;8.35;;;4.63;;
4061;SDS011;2046;47.064;15.456;2023-03-01T19:32:09;7.75;;;4.90;;
4061;SDS011;2046;47.064;15.456;2023-03-01T19:34:36;11.38;;;6.20;;
4061;SDS011;2046;47.064;15.456;2023-03-01T19:37:03;16.58;;;6.72;;
4061;SDS011;2046;47.064;15.456;2023-03-01T19:39:30;10.32;;;5.95;;
4061;SDS011;2046;47.064;15.456;2023-03-01T19:41:56;11.88;;;6.53;;
4061;SDS011;2046;47.064;15.456;2023-03-01T19:44:23;10.95;;;6.63;;